Time;durP1;ratioP1;P1;durP2;ratioP2;P2;SDS_P1;SDS_P2;PMS_P1;PMS_P2;Temp;Humidity;BMP_temperature;BMP_pressure;BME280_temperature;BME280_humidity;BME280_pressure;Samples;Min_cycle;Max_cycle;Signal;HPM_P1;HPM_P2
2021/12/01 00:00:38;;;;;;;9.60;2.70;;;;;;;-2.09;92.99;98194.27;101385;1318;59430;-69
2021/12/01 00:03:26;;;;;;;8.10;2.80;;;;;;;-2.09;93.21;98196.06;101356;1319;59385;-71
2021/12/01 00:06:15;;;;;;;8.30;2.40;;;;;;;-2.10;93.16;98199.76;101285;1319;71435;-71
2021/12/01 00:09:04;;;;;;;9.40;2.60;;;;;;;-2.11;93.11;98207.79;101279;1319;68175;-70
2021/12/01 00:11:52;;;;;;;8.00;2.60;;;;;;;-2.14;92.75;98212.30;101319;1319;71521;-70
2021/12/01 00:14:41;;;;;;;9.10;2.40;;;;;;;-2.20;92.81;98214.70;101336;1325;59353;-70
2021/12/01 00:17:28;;;;;;;9.20;2.30;;;;;;;-2.28;93.21;98218.59;101447;1319;59390;-71
2021/12/01 00:20:19;;;;;;;7.60;2.40;;;;;;;-2.35;93.23;98223.16;101463;1318;73910;-72
2021/12/01 00:23:08;;;;;;;8.80;3.00;;;;;;;-2.38;93.56;98230.46;101217;1318;66592;-71
2021/12/01 00:25:57;;;;;;;8.20;2.30;;;;;;;-2.37;93.66;98230.24;101765;1318;72752;-71
2021/12/01 00:28:45;;;;;;;9.10;2.70;;;;;;;-2.32;93.62;98227.89;101532;1320;59387;-73
2021/12/01 00:31:34;;;;;;;7.60;2.50;;;;;;;-2.27;93.39;98224.64;101884;1318;60546;-73
2021/12/01 00:34:22;;;;;;;7.40;2.40;;;;;;;-2.23;93.15;98221.48;101521;1319;71009;-73
2021/12/01 00:37:10;;;;;;;8.30;2.40;;;;;;;-2.22;92.66;98224.39;101747;1319;67157;-73
2021/12/01 00:39:59;;;;;;;7.10;2.20;;;;;;;-2.22;92.76;98226.48;101892;1318;73039;-72
2021/12/01 00:42:47;;;;;;;9.00;2.30;;;;;;;-2.24;92.54;98232.28;101917;1321;59346;-73
2021/12/01 00:45:35;;;;;;;6.50;2.00;;;;;;;-2.26;92.70;98228.95;101601;1321;60547;-72
2021/12/01 00:48:26;;;;;;;6.90;2.20;;;;;;;-2.30;92.60;98235.40;101496;1318;72616;-73
2021/12/01 00:51:16;;;;;;;8.90;2.60;;;;;;;-2.35;92.66;98227.16;101477;1319;68452;-73
2021/12/01 00:54:03;;;;;;;7.60;2.30;;;;;;;-2.37;92.90;98223.13;101691;1318;74522;-73
2021/12/01 00:56:52;;;;;;;7.20;2.50;;;;;;;-2.38;93.07;98237.91;101706;1319;59441;-73
2021/12/01 00:59:40;;;;;;;7.30;2.60;;;;;;;-2.40;92.58;98247.58;102374;1319;62542;-73
2021/12/01 01:02:28;;;;;;;8.90;2.50;;;;;;;-2.41;92.77;98255.45;103825;1320;72709;-72
2021/12/01 01:05:17;;;;;;;7.70;2.30;;;;;;;-2.41;92.91;98269.02;104040;1318;68824;-71
2021/12/01 01:08:07;;;;;;;8.10;2.30;;;;;;;-2.42;92.74;98267.12;103134;1326;71474;-71
2021/12/01 01:20:21;;;;;;;6.80;2.00;;;;;;;-2.41;92.66;98292.27;101777;1319;68708;-70
2021/12/01 01:23:10;;;;;;;8.00;2.50;;;;;;;-2.45;92.47;98289.01;101765;1317;71317;-70
2021/12/01 01:26:00;;;;;;;7.50;2.60;;;;;;;-2.49;92.47;98286.11;101339;1321;59382;-72
2021/12/01 01:28:48;;;;;;;9.40;3.20;;;;;;;-2.53;92.65;98286.66;101625;1318;59479;-73
2021/12/01 01:31:37;;;;;;;9.30;2.90;;;;;;;-2.55;92.52;98291.29;101559;1319;72587;-73
2021/12/01 01:34:26;;;;;;;8.80;2.40;;;;;;;-2.60;92.61;98289.44;101511;1322;67985;-74
2021/12/01 01:37:14;;;;;;;9.90;2.90;;;;;;;-2.64;92.97;98291.52;101744;1318;73025;-74
2021/12/01 01:40:03;;;;;;;7.80;2.70;;;;;;;-2.67;92.71;98293.28;101591;1318;59244;-73
2021/12/01 01:42:51;;;;;;;8.70;2.90;;;;;;;-2.72;92.88;98296.31;102547;1318;60788;-77
2021/12/01 01:45:39;;;;;;;7.50;3.00;;;;;;;-2.77;92.88;98297.12;101446;1318;71176;-74
2021/12/01 01:48:31;;;;;;;10.90;2.60;;;;;;;-2.83;93.01;98304.34;101578;1319;69637;-74
2021/12/01 01:51:25;;;;;;;10.80;2.80;;;;;;;-2.92;92.86;98305.31;101766;1319;72866;-72
2021/12/01 01:54:15;;;;;;;9.40;2.60;;;;;;;-3.00;92.96;98305.70;101763;1319;59374;-73
2021/12/01 01:57:04;;;;;;;10.30;2.90;;;;;;;-3.04;92.89;98308.68;101665;1319;60832;-73
2021/12/01 01:59:51;;;;;;;11.00;2.80;;;;;;;-3.06;93.07;98301.51;100648;1321;1003087;-75
2021/12/01 02:02:39;;;;;;;8.60;2.20;;;;;;;-3.08;92.97;98299.52;101535;1322;68674;-73
2021/12/01 02:05:28;;;;;;;8.50;2.20;;;;;;;-3.09;93.04;98299.02;101374;1318;71690;-73
2021/12/01 02:08:26;;;;;;;7.30;2.60;;;;;;;-3.09;93.01;98307.21;101436;1320;60044;-72
2021/12/01 02:11:17;;;;;;;9.80;2.60;;;;;;;-3.11;92.98;98319.79;100735;1318;1003862;-73
2021/12/01 02:14:05;;;;;;;88.70;30.10;;;;;;;-3.13;92.87;98318.86;101648;1321;73900;-73
2021/12/01 02:16:55;;;;;;;65.00;22.90;;;;;;;-3.17;92.96;98320.24;102012;1319;67006;-74
2021/12/01 02:19:44;;;;;;;99.60;33.70;;;;;;;-3.20;93.23;98323.20;101710;1318;71552;-74
2021/12/01 02:22:34;;;;;;;128.90;42.10;;;;;;;-3.24;93.02;98322.16;101424;1318;59353;-75
2021/12/01 02:25:27;;;;;;;71.90;25.10;;;;;;;-3.28;93.02;98324.11;101400;1324;59965;-74
2021/12/01 02:28:15;;;;;;;73.20;24.00;;;;;;;-3.31;92.99;98330.85;101823;1319;72500;-72
2021/12/01 02:31:03;;;;;;;77.70;22.40;;;;;;;-3.34;93.11;98341.71;101391;1320;66902;-72
2021/12/01 02:33:53;;;;;;;125.20;35.10;;;;;;;-3.35;93.09;98341.98;101500;1321;73038;-72
2021/12/01 02:36:42;;;;;;;62.80;20.20;;;;;;;-3.37;93.22;98339.64;101714;1319;59384;-73
2021/12/01 02:39:30;;;;;;;63.20;22.50;;;;;;;-3.39;93.15;98340.27;101099;1318;1003085;-72
2021/12/01 02:42:20;;;;;;;39.00;15.00;;;;;;;-3.41;93.46;98342.77;101686;1319;72299;-72
2021/12/01 02:45:09;;;;;;;63.60;25.70;;;;;;;-3.43;93.18;98343.89;102518;1318;68088;-74
2021/12/01 02:47:56;;;;;;;27.70;11.20;;;;;;;-3.45;93.42;98348.17;101927;1319;73146;-74
2021/12/01 02:50:45;;;;;;;17.70;7.50;;;;;;;-3.46;93.72;98349.74;101771;1319;59321;-70
2021/12/01 02:53:33;;;;;;;10.90;3.70;;;;;;;-3.45;93.74;98350.59;101516;1319;59402;-73
2021/12/01 02:56:22;;;;;;;9.30;4.00;;;;;;;-3.43;94.18;98348.91;101310;1323;72422;-73
2021/12/01 02:59:11;;;;;;;9.50;3.20;;;;;;;-3.37;94.23;98347.46;101326;1321;69016;-74
2021/12/01 03:01:59;;;;;;;9.80;3.00;;;;;;;-3.35;93.92;98346.97;101432;1322;71860;-73
2021/12/01 03:04:48;;;;;;;8.00;2.90;;;;;;;-3.31;93.74;98352.37;101658;1319;59342;-72
2021/12/01 03:07:37;;;;;;;8.40;2.90;;;;;;;-3.31;93.67;98347.48;101730;1319;60073;-72
2021/12/01 03:10:25;;;;;;;8.10;2.50;;;;;;;-3.31;93.67;98342.77;101581;1318;72459;-75
2021/12/01 03:13:15;;;;;;;7.20;2.40;;;;;;;-3.32;93.77;98342.84;101247;1321;69542;-72
2021/12/01 03:16:05;;;;;;;8.80;2.20;;;;;;;-3.35;93.49;98348.90;102104;1318;72994;-72
2021/12/01 03:18:53;;;;;;;7.50;2.40;;;;;;;-3.41;93.55;98351.45;101285;1319;59377;-71
2021/12/01 03:21:43;;;;;;;9.40;2.90;;;;;;;-3.47;93.39;98345.65;101109;1318;1002870;-71
2021/12/01 03:24:33;;;;;;;8.40;3.40;;;;;;;-3.52;93.34;98345.73;101295;1321;73212;-73
2021/12/01 03:27:21;;;;;;;9.50;2.90;;;;;;;-3.58;93.59;98345.14;101380;1321;68160;-73
2021/12/01 03:30:12;;;;;;;10.30;3.90;;;;;;;-3.63;93.72;98345.20;100985;1319;1003904;-73
2021/12/01 03:33:02;;;;;;;14.00;5.40;;;;;;;-3.67;93.71;98345.20;101187;1322;1003367;-72
2021/12/01 03:35:54;;;;;;;10.10;4.00;;;;;;;-3.68;93.67;98344.56;101966;1319;60677;-72
2021/12/01 03:38:41;;;;;;;8.90;2.90;;;;;;;-3.68;93.98;98348.02;101799;1318;69931;-72
2021/12/01 03:41:30;;;;;;;7.50;2.60;;;;;;;-3.67;94.00;98346.95;101740;1321;68453;-72
2021/12/01 03:44:18;;;;;;;10.10;3.00;;;;;;;-3.65;94.05;98353.81;100802;1319;1003616;-72
2021/12/01 03:47:06;;;;;;;9.40;3.00;;;;;;;-3.66;93.89;98355.04;102698;1318;59346;-74
2021/12/01 03:49:54;;;;;;;10.50;3.20;;;;;;;-3.66;93.93;98355.55;101853;1319;60096;-72
2021/12/01 03:52:42;;;;;;;24.00;7.60;;;;;;;-3.69;93.81;98361.92;101763;1318;71163;-73
2021/12/01 03:55:30;;;;;;;26.50;8.20;;;;;;;-3.73;93.86;98362.48;101478;1321;66984;-72
2021/12/01 03:58:19;;;;;;;40.30;11.60;;;;;;;-3.77;94.04;98355.70;101755;1318;73163;-74
2021/12/01 04:01:11;;;;;;;97.00;26.60;;;;;;;-3.80;94.17;98348.93;101366;1319;59296;-71
2021/12/01 04:04:00;;;;;;;123.60;33.40;;;;;;;-3.82;93.95;98345.21;101485;1322;60393;-74
2021/12/01 04:06:47;;;;;;;111.80;30.60;;;;;;;-3.84;94.34;98341.11;101455;1321;72506;-72
2021/12/01 04:09:39;;;;;;;76.10;23.30;;;;;;;-3.84;94.08;98339.08;101410;1318;66531;-73
2021/12/01 04:12:27;;;;;;;60.60;19.80;;;;;;;-3.85;94.19;98338.09;102517;1321;71827;-72
2021/12/01 04:15:16;;;;;;;40.20;14.30;;;;;;;-3.83;94.56;98346.84;103652;1322;59304;-72
2021/12/01 04:18:04;;;;;;;15.60;5.40;;;;;;;-3.83;94.33;98349.58;101623;1319;1002580;-73
2021/12/01 04:20:52;;;;;;;11.90;4.20;;;;;;;-3.83;94.29;98342.84;102091;1321;70112;-73
2021/12/01 04:23:40;;;;;;;10.30;3.00;;;;;;;-3.85;94.20;98344.48;101824;1322;68317;-73
2021/12/01 04:26:32;;;;;;;9.40;2.90;;;;;;;-3.87;94.02;98342.31;101736;1322;72676;-71
2021/12/01 04:29:22;;;;;;;9.30;2.70;;;;;;;-3.91;93.92;98345.80;101289;1318;1002994;-72
2021/12/01 04:32:10;;;;;;;10.90;3.10;;;;;;;-3.96;93.86;98345.99;101822;1319;59459;-71
2021/12/01 04:34:58;;;;;;;11.20;3.90;;;;;;;-4.01;93.76;98344.33;101645;1319;70991;-73
2021/12/01 04:37:48;;;;;;;13.40;3.60;;;;;;;-4.04;93.80;98342.23;101075;1317;1003849;-72
2021/12/01 04:40:36;;;;;;;7.60;2.50;;;;;;;-4.05;94.12;98341.23;101824;1319;74518;-69
2021/12/01 04:43:24;;;;;;;9.90;3.00;;;;;;;-4.06;93.87;98335.23;101793;1318;59315;-71
2021/12/01 04:46:16;;;;;;;8.80;2.80;;;;;;;-4.06;93.99;98328.98;101642;1322;59299;-71
2021/12/01 04:49:04;;;;;;;10.30;3.30;;;;;;;-4.03;94.32;98327.64;102855;1319;72664;-74
2021/12/01 04:51:57;;;;;;;10.30;2.90;;;;;;;-4.02;94.22;98317.53;102042;1319;68538;-73
2021/12/01 04:54:45;;;;;;;9.40;3.00;;;;;;;-4.02;94.19;98310.61;101727;1319;70447;-73
2021/12/01 04:57:37;;;;;;;11.40;3.20;;;;;;;-4.04;93.91;98311.40;102499;1319;59378;-74
2021/12/01 05:00:27;;;;;;;9.20;3.10;;;;;;;-4.08;93.87;98308.11;100950;1322;1003768;-72
2021/12/01 05:03:15;;;;;;;10.70;3.00;;;;;;;-4.15;93.65;98301.33;101853;1320;72513;-73
2021/12/01 05:06:15;;;;;;;7.80;2.30;;;;;;;-4.25;93.80;98307.48;101937;1316;68407;-72
2021/12/01 05:09:09;;;;;;;10.70;3.30;;;;;;;-4.33;93.90;98307.86;101733;1322;72552;-72
2021/12/01 05:11:59;;;;;;;9.70;3.60;;;;;;;-4.38;94.57;98310.16;102192;1316;60638;-70
2021/12/01 05:14:47;;;;;;;9.10;3.60;;;;;;;-4.40;94.73;98308.88;101808;1319;59399;-75
2021/12/01 05:17:35;;;;;;;9.70;3.90;;;;;;;-4.42;94.83;98300.13;101667;1318;70899;-71
2021/12/01 05:20:23;;;;;;;13.10;3.80;;;;;;;-4.44;94.85;98301.58;101819;1323;67451;-74
2021/12/01 05:23:15;;;;;;;11.40;4.20;;;;;;;-4.44;94.74;98300.02;101826;1319;70657;-72
2021/12/01 05:26:06;;;;;;;11.90;4.10;;;;;;;-4.44;94.63;98304.38;101824;1319;59430;-72
2021/12/01 05:28:54;;;;;;;10.20;3.80;;;;;;;-4.49;94.42;98301.98;101719;1318;151861;-75
2021/12/01 05:31:43;;;;;;;10.70;3.60;;;;;;;-4.53;94.54;98304.40;101921;1318;72452;-71
2021/12/01 05:34:32;;;;;;;12.80;4.30;;;;;;;-4.57;94.54;98294.20;102001;1319;68266;-74
2021/12/01 05:37:21;;;;;;;11.40;4.00;;;;;;;-4.61;94.73;98287.59;101981;1318;71779;-72
2021/12/01 05:40:10;;;;;;;10.20;3.60;;;;;;;-4.64;94.56;98290.34;101745;1319;59323;-69
2021/12/01 05:42:59;;;;;;;13.10;4.70;;;;;;;-4.66;94.58;98288.20;101801;1319;59361;-73
2021/12/01 05:45:54;;;;;;;13.50;5.30;;;;;;;-4.68;94.62;98291.03;102178;1319;72563;-73
2021/12/01 05:48:51;;;;;;;14.70;4.40;;;;;;;-4.74;94.97;98291.98;101861;1321;67649;-72
2021/12/01 05:51:39;;;;;;;13.50;4.60;;;;;;;-4.67;94.88;98312.98;102884;1319;74594;-73
2021/12/01 05:54:27;;;;;;;15.40;5.20;;;;;;;-4.66;95.08;98316.73;101942;1318;59412;-70
2021/12/01 05:57:15;;;;;;;12.90;4.30;;;;;;;-4.65;94.99;98321.90;101807;1319;59351;-72
2021/12/01 06:00:09;;;;;;;15.30;5.00;;;;;;;-4.64;95.15;98322.73;100817;1322;1002981;-70
2021/12/01 06:02:58;;;;;;;10.30;4.20;;;;;;;-4.64;95.34;98332.58;101922;1319;68338;-72
2021/12/01 06:05:46;;;;;;;14.80;4.60;;;;;;;-4.63;95.72;98334.63;101676;1318;70301;-73
2021/12/01 06:08:36;;;;;;;14.70;5.00;;;;;;;-4.65;95.33;98330.70;101827;1319;59355;-72
2021/12/01 06:11:24;;;;;;;18.80;6.10;;;;;;;-4.67;95.41;98333.55;101919;1322;60918;-73
2021/12/01 06:14:14;;;;;;;23.60;8.20;;;;;;;-4.67;95.23;98333.55;100691;1325;1003179;-72
2021/12/01 06:17:03;;;;;;;18.90;6.40;;;;;;;-4.65;95.30;98324.00;102039;1322;66008;-72
2021/12/01 06:19:53;;;;;;;22.40;7.40;;;;;;;-4.66;95.27;98320.38;101718;1320;74385;-72
2021/12/01 06:22:43;;;;;;;23.90;8.40;;;;;;;-4.66;95.40;98313.27;101684;1320;59390;-71
2021/12/01 06:25:31;;;;;;;22.60;7.90;;;;;;;-4.66;95.32;98310.33;101835;1317;59407;-71
2021/12/01 06:28:19;;;;;;;24.50;7.90;;;;;;;-4.68;95.11;98303.52;101726;1322;71249;-70
2021/12/01 06:31:08;;;;;;;21.10;7.90;;;;;;;-4.70;94.93;98308.98;101311;1316;1003177;-73
2021/12/01 06:33:58;;;;;;;21.30;6.80;;;;;;;-4.76;95.19;98296.94;101945;1320;71267;-70
2021/12/01 06:36:46;;;;;;;18.90;7.20;;;;;;;-4.75;95.44;98298.30;102103;1320;59312;-69
2021/12/01 06:39:36;;;;;;;21.70;6.50;;;;;;;-4.77;95.43;98297.67;102081;1320;59520;-69
2021/12/01 06:42:24;;;;;;;27.20;9.80;;;;;;;-4.76;95.69;98297.27;101083;1315;1003894;-69
2021/12/01 06:45:12;;;;;;;21.80;8.10;;;;;;;-4.72;95.99;98295.19;101868;1315;67325;-70
2021/12/01 06:48:01;;;;;;;19.50;7.80;;;;;;;-4.67;96.22;98297.91;102163;1322;72500;-70
2021/12/01 06:50:49;;;;;;;22.60;8.20;;;;;;;-4.61;96.49;98293.65;102054;1319;59316;-72
2021/12/01 06:53:37;;;;;;;23.60;8.40;;;;;;;-4.52;96.67;98302.62;101475;1320;1003110;-70
2021/12/01 06:56:25;;;;;;;19.60;8.00;;;;;;;-4.44;96.67;98303.48;101959;1322;72552;-71
2021/12/01 06:59:13;;;;;;;17.50;6.80;;;;;;;-4.35;96.90;98302.42;101947;1317;67242;-68
2021/12/01 07:02:01;;;;;;;18.30;6.90;;;;;;;-4.30;96.94;98301.16;100440;1317;1003483;-71
2021/12/01 07:04:49;;;;;;;15.70;6.40;;;;;;;-4.24;96.71;98298.79;102118;1316;60010;-70
2021/12/01 07:07:39;;;;;;;16.00;6.50;;;;;;;-4.18;96.87;98293.69;101940;1316;59509;-71
2021/12/01 07:10:27;;;;;;;18.10;6.50;;;;;;;-4.12;97.01;98294.42;101723;1319;74222;-72
2021/12/01 07:13:15;;;;;;;20.10;7.70;;;;;;;-4.06;97.14;98286.55;101894;1322;69480;-72
2021/12/01 07:16:05;;;;;;;16.20;7.70;;;;;;;-4.02;97.23;98288.95;101948;1315;72688;-73
2021/12/01 07:18:54;;;;;;;19.30;7.60;;;;;;;-3.95;97.05;98295.02;101924;1316;60049;-71
2021/12/01 07:21:42;;;;;;;18.40;8.40;;;;;;;-3.87;96.68;98286.69;102223;1317;60154;-70
2021/12/01 07:24:30;;;;;;;23.80;7.80;;;;;;;-3.81;96.36;98285.52;102012;1322;71903;-71
2021/12/01 07:27:18;;;;;;;20.40;7.80;;;;;;;-3.75;95.71;98284.55;102837;1315;66892;-71
2021/12/01 07:30:07;;;;;;;19.90;7.00;;;;;;;-3.67;95.81;98278.11;102493;1320;74681;-71
2021/12/01 07:32:55;;;;;;;16.40;6.40;;;;;;;-3.60;95.45;98276.92;102665;1319;59269;-72
2021/12/01 07:35:43;;;;;;;20.70;8.00;;;;;;;-3.51;95.04;98277.35;102080;1316;60502;-72
2021/12/01 07:38:32;;;;;;;23.20;10.00;;;;;;;-3.40;94.77;98272.48;102017;1321;72324;-71
2021/12/01 07:41:21;;;;;;;26.40;10.40;;;;;;;-3.27;94.42;98266.61;101973;1317;65670;-71
2021/12/01 07:44:09;;;;;;;23.00;7.70;;;;;;;-3.11;93.90;98265.33;101928;1322;73214;-70
2021/12/01 07:46:57;;;;;;;21.20;9.20;;;;;;;-2.93;93.30;98258.88;101704;1320;59695;-72
2021/12/01 07:49:45;;;;;;;21.60;9.30;;;;;;;-2.76;92.96;98254.87;102118;1316;60751;-70
2021/12/01 07:52:35;;;;;;;30.10;12.10;;;;;;;-2.60;92.42;98247.08;101993;1316;72230;-72
2021/12/01 07:55:24;;;;;;;22.00;9.40;;;;;;;-2.48;92.23;98231.17;102483;1317;66972;-72
2021/12/01 07:58:12;;;;;;;22.90;9.00;;;;;;;-2.38;92.34;98233.08;101910;1316;71389;-71
2021/12/01 08:01:00;;;;;;;17.50;7.30;;;;;;;-2.32;92.29;98233.95;101211;1320;1003225;-71
2021/12/01 08:03:48;;;;;;;24.30;9.50;;;;;;;-2.29;91.85;98231.56;101897;1317;61174;-72
2021/12/01 08:06:37;;;;;;;22.70;10.10;;;;;;;-2.26;91.65;98229.98;101883;1316;72270;-71
2021/12/01 08:09:26;;;;;;;26.90;11.50;;;;;;;-2.25;91.15;98224.86;101951;1317;66873;-72
2021/12/01 08:12:13;;;;;;;23.50;10.90;;;;;;;-2.15;90.63;98221.94;101769;1323;71328;-70
2021/12/01 08:15:06;;;;;;;26.00;11.10;;;;;;;-2.05;90.05;98213.17;102023;1315;61192;-70
2021/12/01 08:17:54;;;;;;;33.60;12.30;;;;;;;-1.91;90.30;98209.81;102057;1320;59406;-72
2021/12/01 08:20:43;;;;;;;25.60;10.40;;;;;;;-1.76;90.31;98209.84;101878;1316;72286;-69
2021/12/01 08:23:31;;;;;;;26.90;10.20;;;;;;;-1.69;89.38;98202.50;101452;1319;67354;-72
2021/12/01 08:26:22;;;;;;;26.70;11.50;;;;;;;-1.65;89.47;98202.95;101658;1317;72840;-72
2021/12/01 08:29:14;;;;;;;30.60;11.50;;;;;;;-1.62;89.69;98204.50;101784;1322;59306;-71
2021/12/01 08:32:03;;;;;;;30.90;11.60;;;;;;;-1.64;89.26;98202.02;101912;1317;61350;-70
2021/12/01 08:34:51;;;;;;;23.50;9.40;;;;;;;-1.62;89.82;98201.56;101491;1323;72381;-72
2021/12/01 08:37:39;;;;;;;30.20;10.90;;;;;;;-1.62;89.41;98194.26;101584;1316;66744;-72
2021/12/01 08:40:27;;;;;;;24.30;10.80;;;;;;;-1.60;89.81;98189.43;101870;1322;70337;-72
2021/12/01 08:43:15;;;;;;;25.60;9.40;;;;;;;-1.58;89.13;98182.70;101935;1316;59242;-71
2021/12/01 08:46:05;;;;;;;26.30;11.70;;;;;;;-1.54;89.53;98176.05;101558;1322;59400;-71
2021/12/01 08:48:56;;;;;;;28.00;11.50;;;;;;;-1.49;89.54;98179.77;101934;1316;71331;-70
2021/12/01 08:51:44;;;;;;;30.50;12.80;;;;;;;-1.46;89.31;98180.46;101858;1317;68303;-72
2021/12/01 08:54:32;;;;;;;37.00;14.70;;;;;;;-1.42;89.38;98188.59;102223;1323;72641;-73
2021/12/01 08:57:21;;;;;;;34.90;13.80;;;;;;;-1.34;89.83;98183.25;102126;1317;59560;-72
2021/12/01 09:00:09;;;;;;;32.40;12.10;;;;;;;-1.26;89.51;98184.88;101950;1316;60463;-71
2021/12/01 09:02:58;;;;;;;28.10;10.30;;;;;;;-1.18;89.84;98180.72;100875;1317;1002979;-71
2021/12/01 09:05:47;;;;;;;30.80;11.20;;;;;;;-1.11;89.58;98172.13;102349;1317;65987;-73
2021/12/01 09:08:35;;;;;;;25.70;10.50;;;;;;;-1.02;89.45;98167.43;102097;1317;72710;-71
2021/12/01 09:11:24;;;;;;;24.40;8.60;;;;;;;-1.00;89.26;98167.27;101653;1316;59583;-71
2021/12/01 09:14:12;;;;;;;28.80;11.10;;;;;;;-1.00;89.41;98169.95;101768;1320;60500;-72
2021/12/01 09:17:00;;;;;;;26.40;9.40;;;;;;;-1.04;89.29;98164.91;101913;1320;72480;-71
2021/12/01 09:19:50;;;;;;;27.10;10.10;;;;;;;-1.07;89.50;98151.34;101859;1322;68133;-72
2021/12/01 09:22:38;;;;;;;23.70;9.20;;;;;;;-1.04;89.83;98138.48;101545;1320;74389;-73
2021/12/01 09:25:26;;;;;;;21.50;8.70;;;;;;;-0.98;90.02;98134.98;101522;1322;59346;-73
2021/12/01 09:28:32;;;;;;;22.20;8.90;;;;;;;-0.86;89.71;98129.51;101643;1323;59393;-69
2021/12/01 09:31:20;;;;;;;20.90;9.30;;;;;;;-0.79;89.83;98129.48;101905;1316;72269;-72
2021/12/01 09:34:09;;;;;;;17.30;7.90;;;;;;;-0.71;89.69;98128.64;101835;1316;67900;-71
2021/12/01 09:36:57;;;;;;;20.40;8.80;;;;;;;-0.71;89.75;98126.48;101729;1323;73066;-73
2021/12/01 09:39:46;;;;;;;20.40;8.80;;;;;;;-0.69;89.83;98127.45;102046;1317;59496;-72
2021/12/01 09:42:34;;;;;;;21.00;7.40;;;;;;;-0.61;89.97;98128.71;101924;1320;59261;-72
2021/12/01 09:45:25;;;;;;;15.00;6.10;;;;;;;-0.55;89.85;98128.11;101827;1317;70905;-72
2021/12/01 09:48:14;;;;;;;17.70;6.90;;;;;;;-0.54;89.94;98128.59;101949;1319;67568;-73
2021/12/01 09:51:03;;;;;;;19.80;7.40;;;;;;;-0.54;90.24;98125.48;101916;1318;70783;-74
2021/12/01 09:53:53;;;;;;;21.60;8.80;;;;;;;-0.50;90.54;98127.48;101895;1322;59299;-72
2021/12/01 09:56:41;;;;;;;20.90;8.00;;;;;;;-0.50;90.38;98120.84;102479;1319;59286;-73
2021/12/01 09:59:29;;;;;;;19.90;8.00;;;;;;;-0.48;90.71;98112.05;101835;1320;70877;-70
2021/12/01 10:02:17;;;;;;;18.00;6.90;;;;;;;-0.42;90.90;98110.23;101857;1323;68379;-70
2021/12/01 10:05:06;;;;;;;17.70;7.10;;;;;;;-0.34;90.79;98109.21;102052;1320;72207;-70
2021/12/01 10:07:54;;;;;;;17.40;7.40;;;;;;;-0.23;90.65;98108.36;101845;1317;59387;-70
2021/12/01 10:10:42;;;;;;;17.10;7.10;;;;;;;-0.13;90.18;98104.41;102104;1320;59614;-72
2021/12/01 10:13:37;;;;;;;14.40;6.30;;;;;;;-0.06;90.05;98091.19;101918;1317;71292;-71
2021/12/01 10:16:32;;;;;;;15.50;6.90;;;;;;;-0.04;89.78;98078.87;102054;1317;66716;-70
2021/12/01 10:19:20;;;;;;;16.00;6.50;;;;;;;-0.01;89.80;98069.23;101891;1317;70489;-70
2021/12/01 11:20:58;;;;;;;18.00;6.90;;;;;;;-0.64;94.02;97955.57;100572;1337;72053;-71
2021/12/01 11:23:54;;;;;;;16.60;7.60;;;;;;;-0.69;94.46;97951.20;100539;1336;67570;-72
2021/12/01 11:26:45;;;;;;;16.80;7.50;;;;;;;-0.74;95.20;97938.98;100141;1336;72926;-71
2021/12/01 11:29:54;;;;;;;17.90;8.30;;;;;;;-0.77;95.62;97929.77;99919;1337;59473;-71
2021/12/01 11:32:47;;;;;;;16.40;6.80;;;;;;;-0.79;95.86;97927.08;99943;1336;59521;-71
2021/12/01 11:35:38;;;;;;;13.30;5.90;;;;;;;-0.80;96.45;97918.43;100380;1336;71233;-71
2021/12/01 11:38:28;;;;;;;15.90;6.30;;;;;;;-0.77;96.82;97915.47;100409;1337;67240;-71
2021/12/01 11:41:17;;;;;;;18.20;7.90;;;;;;;-0.80;97.14;97903.69;100195;1336;72055;-71
2021/12/01 11:44:07;;;;;;;14.90;6.30;;;;;;;-0.78;97.27;97891.90;99939;1340;59333;-72
2021/12/01 11:46:59;;;;;;;19.00;7.90;;;;;;;-0.81;98.04;97881.61;100137;1340;60428;-71
2021/12/01 11:49:53;;;;;;;16.80;6.10;;;;;;;-0.81;98.19;97870.79;99986;1335;72665;-76
2021/12/01 11:53:17;;;;;;;14.70;6.80;;;;;;;-0.79;98.62;97853.63;100037;1337;65866;-71
2021/12/01 11:56:40;;;;;;;18.80;8.40;;;;;;;-0.76;98.67;97844.00;100711;1333;72783;-71
2021/12/01 11:59:32;;;;;;;18.50;7.20;;;;;;;-0.69;98.45;97835.55;100280;1333;59373;-70
2021/12/01 12:02:26;;;;;;;18.70;8.40;;;;;;;-0.64;98.33;97824.25;100254;1333;59750;-70
2021/12/01 12:05:16;;;;;;;18.20;8.80;;;;;;;-0.56;98.07;97822.46;100149;1340;72729;-70
2021/12/01 12:08:06;;;;;;;19.70;8.60;;;;;;;-0.54;97.53;97819.38;100058;1334;68202;-70
2021/12/01 12:10:56;;;;;;;19.90;8.70;;;;;;;-0.49;97.58;97811.37;100342;1337;72799;-70
2021/12/01 12:14:21;;;;;;;17.50;7.50;;;;;;;-0.44;97.42;97804.98;100287;1337;59366;-70
2021/12/01 12:17:21;;;;;;;17.60;7.80;;;;;;;-0.39;97.42;97795.88;100118;1334;60370;-70
2021/12/01 12:20:25;;;;;;;20.80;8.20;;;;;;;-0.38;96.99;97795.30;100476;1337;71049;-71
2021/12/01 12:23:35;;;;;;;17.50;7.90;;;;;;;-0.36;97.02;97784.19;100072;1340;68439;-70
2021/12/01 12:26:42;;;;;;;17.70;8.40;;;;;;;-0.32;96.90;97780.08;99733;1346;73744;-71
2021/12/01 12:29:45;;;;;;;18.00;8.30;;;;;;;-0.31;96.71;97771.63;99698;1342;59636;-70
2021/12/01 12:32:34;;;;;;;14.50;6.40;;;;;;;-0.30;96.53;97760.48;100052;1340;59437;-70
2021/12/01 12:35:42;;;;;;;15.30;7.60;;;;;;;-0.31;96.74;97755.76;99873;1340;72319;-71
2021/12/01 12:38:32;;;;;;;16.60;8.60;;;;;;;-0.30;96.73;97746.65;99682;1341;65859;-71
2021/12/01 12:41:22;;;;;;;17.60;8.30;;;;;;;-0.30;96.82;97739.01;99867;1340;73031;-70
2021/12/01 12:44:33;;;;;;;12.70;6.20;;;;;;;-0.29;96.65;97736.48;99877;1341;59437;-70
2021/12/01 12:47:49;;;;;;;15.50;7.60;;;;;;;-0.33;96.79;97732.39;100084;1337;60710;-70
2021/12/01 12:50:39;;;;;;;17.30;8.00;;;;;;;-0.35;96.69;97720.35;100123;1334;72696;-70
2021/12/01 12:53:48;;;;;;;17.20;8.90;;;;;;;-0.38;96.83;97714.95;100079;1336;68459;-71
2021/12/01 12:56:43;;;;;;;16.80;8.40;;;;;;;-0.38;97.02;97705.93;100293;1340;73492;-71
2021/12/01 12:59:33;;;;;;;14.80;7.00;;;;;;;-0.42;96.84;97702.66;100265;1334;59404;-71
2021/12/01 13:02:28;;;;;;;18.50;8.40;;;;;;;-0.43;97.09;97692.87;100131;1334;61023;-70
2021/12/01 13:05:41;;;;;;;16.60;8.40;;;;;;;-0.42;96.99;97689.46;100203;1334;72814;-70
2021/12/01 13:08:39;;;;;;;16.20;7.80;;;;;;;-0.42;97.24;97688.28;100153;1334;68328;-71
2021/12/01 13:11:34;;;;;;;15.40;8.30;;;;;;;-0.45;97.48;97680.81;100327;1334;71531;-71
2021/12/01 13:14:24;;;;;;;20.90;9.50;;;;;;;-0.48;97.53;97666.04;100004;1343;59376;-71
2021/12/01 13:17:21;;;;;;;18.20;9.20;;;;;;;-0.49;97.62;97665.20;99818;1336;62204;-70
2021/12/01 13:20:16;;;;;;;18.90;9.10;;;;;;;-0.49;97.65;97655.09;99791;1346;72648;-71
2021/12/01 13:23:08;;;;;;;19.20;8.40;;;;;;;-0.51;97.86;97647.93;99790;1340;68255;-70
2021/12/01 13:26:36;;;;;;;18.40;9.10;;;;;;;-0.52;97.98;97633.85;99830;1340;73074;-71
2021/12/01 13:29:26;;;;;;;19.20;9.50;;;;;;;-0.51;97.89;97628.05;99400;1343;589442;-71
2021/12/01 13:36:52;;;;;;;20.80;9.20;;;;;;;-0.52;97.99;97606.70;99624;1355;72877;-72
2021/12/01 13:39:48;;;;;;;22.20;11.10;;;;;;;-0.54;98.25;97596.74;99243;1349;66761;-71
2021/12/01 13:42:38;;;;;;;17.80;9.20;;;;;;;-0.55;98.04;97582.52;98976;1349;71435;-71
2021/12/01 13:46:06;;;;;;;21.70;10.50;;;;;;;-0.56;98.00;97575.32;99210;1349;59588;-71
2021/12/01 13:48:58;;;;;;;19.80;9.70;;;;;;;-0.55;97.92;97565.61;99054;1355;60556;-72
2021/12/01 13:52:47;;;;;;;20.40;9.80;;;;;;;-0.56;98.10;97553.48;98984;1357;71187;-72
2021/12/01 13:55:41;;;;;;;18.00;8.70;;;;;;;-0.57;98.27;97535.98;99144;1354;66689;-71
2021/12/01 13:59:17;;;;;;;15.90;8.90;;;;;;;-0.59;98.42;97527.75;99067;1354;73117;-71
2021/12/01 14:02:43;;;;;;;19.00;9.40;;;;;;;-0.62;98.59;97520.86;99061;1355;59389;-71
2021/12/01 14:05:58;;;;;;;19.00;8.90;;;;;;;-0.64;98.84;97513.03;99041;1351;60880;-72
2021/12/01 14:10:00;;;;;;;17.60;8.60;;;;;;;-0.66;98.89;97497.30;99906;1354;72511;-72
2021/12/01 14:13:23;;;;;;;17.40;8.10;;;;;;;-0.68;98.94;97484.18;99096;1349;67945;-72
2021/12/01 14:17:48;;;;;;;19.80;7.80;;;;;;;-0.67;99.07;97476.15;99280;1352;73436;-72
2021/12/01 14:21:47;;;;;;;18.40;8.50;;;;;;;-0.70;99.07;97461.34;99182;1358;59435;-71
2021/12/01 14:25:40;;;;;;;16.40;7.40;;;;;;;-0.73;99.39;97463.13;98794;1357;60094;-72